Terminal Aerodrome Forecast
Issued by NWS

Home | Current Version | Previous Version | Text Only | Print | Product List | Glossary Off
Versions: 1 2 3 4 5 6 7 8 9 10 11 12 13 14 15 16 17 18 19 20 21 22

000
FTUS43 KMPX 172300
TAFAXN
TAF
KAXN 172339Z 1800/1824 10006KT P6SM BKN005 OVC015
     FM180200 10003KT P6SM FEW006 SCT015 BKN070
     FM180500 14005KT 4SM BR SCT003 OVC009 PROB30 1809/1812 4SM TSRA
      BKN008CB
     FM181600 22008KT P6SM BKN015
     FM181900 25008KT P6SM VCSH BKN050 OVC100=

USA.gov is the U.S. government's official web portal to all federal, state and local government web resources and services.